createdAt,value
2018-01-30T00:00:01.421Z,100276.36
2018-01-30T00:02:27.363Z,100286.27
2018-01-30T00:04:53.325Z,100292.45
2018-01-30T00:07:19.255Z,100289.00
2018-01-30T00:09:45.195Z,100282.06
2018-01-30T00:12:11.138Z,100313.30
2018-01-30T00:14:37.073Z,100327.67
2018-01-30T00:17:03.097Z,100322.11
2018-01-30T00:19:29.026Z,100324.25
2018-01-30T00:21:54.965Z,100331.59
2018-01-30T00:24:20.895Z,100328.67
2018-01-30T00:26:46.837Z,100318.58
2018-01-30T00:29:12.770Z,100333.39
2018-01-30T00:31:38.950Z,100343.23
2018-01-30T00:34:04.905Z,100368.57
2018-01-30T00:36:30.863Z,100373.30
2018-01-30T00:38:56.795Z,100390.00
2018-01-30T00:41:22.711Z,100399.37
2018-01-30T00:43:48.647Z,100413.75
2018-01-30T00:46:14.585Z,100402.83
2018-01-30T00:48:40.511Z,100403.83
2018-01-30T00:51:06.453Z,100406.17
2018-01-30T00:53:32.383Z,100405.48
2018-01-30T00:55:58.333Z,100400.88
2018-01-30T00:58:24.278Z,100415.73
2018-01-30T01:00:50.335Z,100423.70
2018-01-30T01:03:16.291Z,100432.12
2018-01-30T01:05:42.229Z,100443.47
2018-01-30T01:08:08.213Z,100442.85
2018-01-30T01:10:34.153Z,100472.80
2018-01-30T01:13:00.082Z,100465.87
2018-01-30T01:15:26.035Z,100471.92
2018-01-30T01:17:51.970Z,100478.44
2018-01-30T01:20:17.923Z,100506.33
2018-01-30T01:22:43.901Z,100498.13
2018-01-30T01:25:09.829Z,100501.58
2018-01-30T01:27:35.772Z,100499.98
2018-01-30T01:30:01.735Z,100503.32
2018-01-30T01:32:27.689Z,100508.72
2018-01-30T01:34:53.641Z,100497.22
2018-01-30T01:37:19.589Z,100509.03
2018-01-30T01:39:45.516Z,100507.86
2018-01-30T01:42:11.592Z,100509.36
2018-01-30T01:44:37.521Z,100508.95
2018-01-30T01:47:03.464Z,100512.95
2018-01-30T01:49:29.419Z,100503.45
2018-01-30T01:51:55.345Z,100504.99
2018-01-30T01:54:21.297Z,100511.67
2018-01-30T01:56:47.261Z,100508.68
2018-01-30T01:59:13.209Z,100516.25
2018-01-30T02:01:39.153Z,100517.31
2018-01-30T02:04:05.071Z,100517.86
2018-01-30T02:06:31.002Z,100519.63
2018-01-30T02:08:56.933Z,100521.94
2018-01-30T02:11:22.861Z,100520.10
2018-01-30T02:13:48.853Z,100523.60
2018-01-30T02:16:14.772Z,100525.60
2018-01-30T02:18:40.733Z,100522.77
2018-01-30T02:21:06.679Z,100533.88
2018-01-30T02:23:32.606Z,100533.83
2018-01-30T02:25:58.541Z,100544.17
2018-01-30T02:28:24.463Z,100548.64
2018-01-30T02:30:50.391Z,100551.34
2018-01-30T02:33:16.326Z,100569.92
2018-01-30T02:35:42.262Z,100569.09
2018-01-30T02:38:08.193Z,100562.56
2018-01-30T02:40:34.215Z,100575.77
2018-01-30T02:43:00.135Z,100582.52
2018-01-30T02:45:26.082Z,100590.34
2018-01-30T02:47:52.036Z,100615.20
2018-01-30T02:50:17.977Z,100617.42
2018-01-30T02:52:43.907Z,100624.80
2018-01-30T02:55:09.846Z,100627.14
2018-01-30T02:57:35.763Z,100633.99
2018-01-30T03:00:01.716Z,100629.83
2018-01-30T03:02:27.645Z,100640.09
2018-01-30T03:04:53.614Z,100644.59
2018-01-30T03:07:19.557Z,100643.52
2018-01-30T03:09:45.504Z,100642.30
2018-01-30T03:12:11.427Z,100632.77
2018-01-30T03:14:37.375Z,100632.56
2018-01-30T03:17:03.305Z,100633.41
2018-01-30T03:19:29.249Z,100642.88
2018-01-30T03:21:55.175Z,100654.19
2018-01-30T03:24:21.173Z,100651.33
2018-01-30T03:26:47.104Z,100662.83
2018-01-30T03:29:13.048Z,100665.29
2018-01-30T03:31:38.966Z,100666.44
2018-01-30T03:34:04.912Z,100682.95
2018-01-30T03:36:30.848Z,100676.34
2018-01-30T03:38:56.790Z,100671.17
2018-01-30T03:41:22.746Z,100671.61
2018-01-30T03:43:48.701Z,100692.63
2018-01-30T03:46:14.632Z,100688.00
2018-01-30T03:48:40.569Z,100691.05
2018-01-30T03:51:06.497Z,100686.47
2018-01-30T03:53:32.437Z,100697.09
2018-01-30T03:55:58.382Z,100687.34
2018-01-30T03:58:24.341Z,100682.65
2018-01-30T04:00:50.268Z,100702.05
2018-01-30T04:03:16.202Z,100693.22
2018-01-30T04:05:42.151Z,100697.41
2018-01-30T04:08:08.107Z,100716.34
2018-01-30T04:10:34.034Z,100713.79
2018-01-30T04:12:59.978Z,100709.20
2018-01-30T04:15:25.898Z,100711.17
2018-01-30T04:17:51.842Z,100710.73
2018-01-30T04:20:17.778Z,100711.36
2018-01-30T04:22:43.698Z,100712.19
2018-01-30T04:25:09.642Z,100715.23
2018-01-30T04:27:35.566Z,100704.80
2018-01-30T04:30:01.490Z,100705.47
2018-01-30T04:32:27.435Z,100714.64
2018-01-30T04:34:53.377Z,100708.27
2018-01-30T04:37:19.302Z,100711.22
2018-01-30T04:39:45.230Z,100720.38
2018-01-30T04:42:11.196Z,100711.84
2018-01-30T04:44:37.140Z,100720.34
2018-01-30T04:47:03.106Z,100717.05
2018-01-30T04:49:29.060Z,100720.03
2018-01-30T04:51:54.988Z,100720.38
2018-01-30T04:54:20.914Z,100718.11
2018-01-30T04:56:46.852Z,100715.67
2018-01-30T04:59:12.794Z,100716.88
2018-01-30T05:01:38.733Z,100708.18
2018-01-30T05:04:04.650Z,100722.94
2018-01-30T05:06:30.570Z,100716.41
2018-01-30T05:08:56.492Z,100718.94
2018-01-30T05:11:22.448Z,100718.31
2018-01-30T05:13:48.394Z,100718.99
2018-01-30T05:16:14.400Z,100720.44
2018-01-30T05:18:40.336Z,100719.33
2018-01-30T05:21:06.256Z,100721.05
2018-01-30T05:23:32.190Z,100727.57
2018-01-30T05:25:58.109Z,100727.15
2018-01-30T05:28:24.182Z,100727.03
2018-01-30T05:30:50.128Z,100728.41
2018-01-30T05:33:16.068Z,100723.80
2018-01-30T05:35:42.016Z,100726.81
2018-01-30T05:38:07.952Z,100718.20
2018-01-30T05:40:33.878Z,100714.49
2018-01-30T05:42:59.815Z,100722.95
2018-01-30T05:45:25.782Z,100731.64
2018-01-30T05:47:51.740Z,100726.19
2018-01-30T05:50:17.692Z,100731.20
2018-01-30T05:52:43.653Z,100741.53
2018-01-30T05:55:09.606Z,100744.08
2018-01-30T05:57:35.570Z,100735.49
2018-01-30T06:00:01.552Z,100746.84
2018-01-30T06:02:27.490Z,100749.55
2018-01-30T06:04:53.431Z,100758.47
2018-01-30T06:07:19.435Z,100746.84
2018-01-30T06:09:45.372Z,100755.52
2018-01-30T06:12:11.294Z,100757.75
2018-01-30T06:14:37.242Z,100761.22
2018-01-30T06:17:03.164Z,100760.50
2018-01-30T06:19:29.088Z,100760.92
2018-01-30T06:21:55.031Z,100765.04
2018-01-30T06:24:20.970Z,100769.81
2018-01-30T06:26:46.933Z,100761.27
2018-01-30T06:29:12.964Z,100767.83
2018-01-30T06:31:38.933Z,100763.30
2018-01-30T06:34:04.914Z,100760.73
2018-01-30T06:36:30.842Z,100769.03
2018-01-30T06:38:56.864Z,100776.52
2018-01-30T06:41:22.804Z,100781.86
2018-01-30T06:43:48.799Z,100783.81
2018-01-30T06:46:14.730Z,100800.06
2018-01-30T06:48:40.678Z,100796.47
2018-01-30T06:51:06.625Z,100798.17
2018-01-30T06:53:32.565Z,100799.64
2018-01-30T06:55:58.498Z,100803.15
2018-01-30T06:58:24.442Z,100802.16
2018-01-30T07:00:50.371Z,100810.41
2018-01-30T07:03:16.314Z,100813.27
2018-01-30T07:05:42.270Z,100824.36
2018-01-30T07:08:08.207Z,100827.92
2018-01-30T07:10:34.154Z,100836.58
2018-01-30T07:13:00.129Z,100836.29
2018-01-30T07:15:26.066Z,100828.33
2018-01-30T07:17:51.988Z,100825.92
2018-01-30T07:20:17.914Z,100832.48
2018-01-30T07:22:43.874Z,100834.81
2018-01-30T07:25:09.807Z,100833.53
2018-01-30T07:27:35.758Z,100841.09
2018-01-30T07:30:01.711Z,100839.92
2018-01-30T07:32:27.667Z,100840.55
2018-01-30T07:34:53.593Z,100851.59
2018-01-30T07:37:19.550Z,100859.79
2018-01-30T07:39:45.485Z,100858.48
2018-01-30T07:42:11.418Z,100861.48
2018-01-30T07:44:37.343Z,100879.95
2018-01-30T07:47:03.282Z,100872.82
2018-01-30T07:49:29.209Z,100877.81
2018-01-30T07:51:55.139Z,100885.77
2018-01-30T07:54:21.097Z,100892.48
2018-01-30T07:56:47.052Z,100900.45
2018-01-30T07:59:12.983Z,100900.22
2018-01-30T08:01:38.923Z,100907.73
2018-01-30T08:04:04.857Z,100906.42
2018-01-30T08:06:31.115Z,100908.86
2018-01-30T08:08:57.059Z,100915.61
2018-01-30T08:11:22.997Z,100923.30
2018-01-30T08:13:48.972Z,100931.23
2018-01-30T08:16:14.912Z,100934.23
2018-01-30T08:18:40.882Z,100944.06
2018-01-30T08:21:06.807Z,100940.23
2018-01-30T08:23:32.773Z,100937.95
2018-01-30T08:25:58.725Z,100954.05
2018-01-30T08:28:24.655Z,100951.34
2018-01-30T08:30:50.587Z,100941.99
2018-01-30T08:33:16.519Z,100940.84
2018-01-30T08:35:42.437Z,100939.06
2018-01-30T08:38:08.412Z,100938.55
2018-01-30T08:40:34.368Z,100941.30
2018-01-30T08:43:00.309Z,100936.20
2018-01-30T08:45:26.242Z,100943.21
2018-01-30T08:47:52.204Z,100938.97
2018-01-30T08:50:18.141Z,100942.34
2018-01-30T08:52:44.104Z,100943.02
2018-01-30T08:55:10.037Z,100947.91
2018-01-30T08:57:35.971Z,100953.13
2018-01-30T09:00:02.154Z,100951.47
2018-01-30T09:02:28.169Z,100954.48
2018-01-30T09:04:54.135Z,100946.38
2018-01-30T09:07:20.053Z,100948.47
2018-01-30T09:09:45.985Z,100949.01
2018-01-30T09:12:11.925Z,100943.53
2018-01-30T09:14:37.869Z,100960.51
2018-01-30T09:17:03.811Z,100959.21
2018-01-30T09:19:29.741Z,100967.56
2018-01-30T09:21:55.759Z,100963.08
2018-01-30T09:24:21.685Z,100974.59
2018-01-30T09:26:47.625Z,100966.80
2018-01-30T09:29:13.545Z,100964.16
2018-01-30T09:31:39.483Z,100962.61
2018-01-30T09:34:05.419Z,100948.65
2018-01-30T09:36:31.355Z,100952.91
2018-01-30T09:38:57.297Z,100962.23
2018-01-30T09:41:23.227Z,100965.11
2018-01-30T09:43:49.253Z,100968.26
2018-01-30T09:46:15.335Z,100968.56
2018-01-30T09:48:41.279Z,100978.31
2018-01-30T09:51:07.421Z,100984.72
2018-01-30T09:53:33.451Z,100983.27
2018-01-30T09:55:59.464Z,100985.55
2018-01-30T09:58:25.499Z,100980.72
2018-01-30T10:00:51.434Z,100979.41
2018-01-30T10:03:17.381Z,100980.47
2018-01-30T10:05:43.342Z,100991.12
2018-01-30T10:08:09.278Z,100982.66
2018-01-30T10:10:35.218Z,100981.80
2018-01-30T10:13:01.144Z,100979.41
2018-01-30T10:15:27.083Z,100982.27
2018-01-30T10:17:53.105Z,100972.22
2018-01-30T10:20:19.054Z,100984.11
2018-01-30T10:22:45.012Z,100979.70
2018-01-30T10:25:10.950Z,100981.02
2018-01-30T10:27:36.880Z,100982.70
2018-01-30T10:30:02.908Z,100989.22
2018-01-30T10:32:28.958Z,100980.52
2018-01-30T10:34:54.889Z,100976.27
2018-01-30T10:37:20.825Z,100978.50
2018-01-30T10:39:46.779Z,100976.62
2018-01-30T10:42:12.708Z,100972.36
2018-01-30T10:44:38.638Z,100973.76
2018-01-30T10:47:04.560Z,100967.09
2018-01-30T10:49:30.502Z,100966.47
2018-01-30T10:51:56.430Z,100973.57
2018-01-30T10:54:22.370Z,100965.80
2018-01-30T10:56:48.344Z,100970.33
2018-01-30T10:59:14.283Z,100972.17
2018-01-30T11:01:40.574Z,100968.45
2018-01-30T11:04:06.561Z,100972.75
2018-01-30T11:06:32.507Z,100959.59
2018-01-30T11:08:58.426Z,100964.23
2018-01-30T11:11:24.444Z,100967.49
2018-01-30T11:13:50.421Z,100962.64
2018-01-30T11:16:16.355Z,100965.16
2018-01-30T11:18:42.292Z,100960.15
2018-01-30T11:21:08.252Z,100960.67
2018-01-30T11:23:34.198Z,100953.03
2018-01-30T11:26:00.218Z,100945.72
2018-01-30T11:28:26.170Z,100953.74
2018-01-30T11:30:52.298Z,100942.70
2018-01-30T11:33:18.301Z,100947.91
2018-01-30T11:35:44.318Z,100938.26
2018-01-30T11:38:10.346Z,100934.83
2018-01-30T11:40:36.312Z,100940.56
2018-01-30T11:43:02.244Z,100933.92
2018-01-30T11:45:28.222Z,100916.09
2018-01-30T11:47:54.166Z,100904.02
2018-01-30T11:50:20.160Z,100909.95
2018-01-30T11:52:46.086Z,100909.99
2018-01-30T11:55:12.032Z,100915.66
2018-01-30T11:57:37.954Z,100910.41
2018-01-30T12:00:03.891Z,100897.30
2018-01-30T12:02:29.818Z,100897.17
2018-01-30T12:04:55.777Z,100894.98
2018-01-30T12:07:21.753Z,100906.93
2018-01-30T12:09:47.686Z,100908.88
2018-01-30T12:12:13.632Z,100907.48
2018-01-30T12:14:39.584Z,100919.47
2018-01-30T12:17:05.574Z,100910.31
2018-01-30T12:22:02.961Z,100901.62
2018-01-30T12:24:28.901Z,100906.18
2018-01-30T12:26:54.834Z,100899.26
2018-01-30T12:29:20.832Z,100902.77
2018-01-30T12:31:46.854Z,100903.55
2018-01-30T12:34:12.775Z,100900.95
2018-01-30T12:36:38.719Z,100902.39
2018-01-30T12:39:04.651Z,100920.25
2018-01-30T12:41:30.612Z,100919.83
2018-01-30T12:43:56.555Z,100913.22
2018-01-30T12:46:22.576Z,100921.30
2018-01-30T12:48:48.553Z,100922.41
2018-01-30T12:51:14.471Z,100924.58
2018-01-30T12:53:40.413Z,100916.75
2018-01-30T12:56:06.340Z,100924.59
2018-01-30T13:05:16.762Z,100922.86
2018-01-30T13:07:42.794Z,100914.62
2018-01-30T13:10:08.786Z,100919.95
2018-01-30T13:12:34.714Z,100912.53
2018-01-30T13:15:00.660Z,100910.81
2018-01-30T13:17:26.601Z,100907.68
2018-01-30T13:19:52.614Z,100896.92
2018-01-30T13:22:18.558Z,100891.59
2018-01-30T13:24:44.492Z,100887.33
2018-01-30T13:27:10.429Z,100885.73
2018-01-30T13:29:36.406Z,100884.14
2018-01-30T13:32:02.391Z,100883.31
2018-01-30T13:34:28.368Z,100884.73
2018-01-30T13:36:54.316Z,100884.13
2018-01-30T13:39:20.276Z,100879.87
2018-01-30T13:41:46.194Z,100883.55
2018-01-30T13:44:12.143Z,100882.33
2018-01-30T13:46:38.091Z,100876.55
2018-01-30T13:49:04.016Z,100875.89
2018-01-30T13:51:29.970Z,100869.67
2018-01-30T13:53:55.920Z,100866.53
2018-01-30T13:56:21.861Z,100868.09
2018-01-30T13:58:47.796Z,100859.11
2018-01-30T14:01:13.799Z,100859.72
2018-01-30T14:03:39.742Z,100852.27
2018-01-30T14:06:05.684Z,100852.12
2018-01-30T14:08:31.612Z,100843.17
2018-01-30T14:10:57.562Z,100836.67
2018-01-30T14:13:23.494Z,100840.22
2018-01-30T14:15:49.430Z,100844.18
2018-01-30T14:18:15.354Z,100846.76
2018-01-30T14:20:41.278Z,100843.23
2018-01-30T14:23:07.348Z,100840.30
2018-01-30T14:25:33.309Z,100848.77
2018-01-30T14:27:59.494Z,100842.86
2018-01-30T14:30:25.495Z,100844.53
2018-01-30T14:32:51.572Z,100846.09
2018-01-30T14:35:17.514Z,100843.55
2018-01-30T14:37:43.826Z,100842.81
2018-01-30T14:40:09.854Z,100845.17
2018-01-30T14:42:35.841Z,100840.81
2018-01-30T14:45:01.787Z,100838.70
2018-01-30T14:47:27.726Z,100835.56
2018-01-30T14:49:53.696Z,100834.38
2018-01-30T14:52:19.631Z,100833.95
2018-01-30T14:54:45.569Z,100836.86
2018-01-30T14:57:11.553Z,100838.20
2018-01-30T14:59:37.529Z,100832.02
2018-01-30T15:02:03.471Z,100831.33
2018-01-30T15:04:29.419Z,100839.78
2018-01-30T15:06:55.361Z,100832.63
2018-01-30T15:09:21.311Z,100836.47
2018-01-30T15:11:47.258Z,100834.86
2018-01-30T15:14:13.182Z,100836.41
2018-01-30T15:16:39.114Z,100837.66
2018-01-30T15:19:05.067Z,100843.60
2018-01-30T15:21:31.043Z,100844.28
2018-01-30T15:23:56.974Z,100850.83
2018-01-30T15:26:22.900Z,100843.80
2018-01-30T15:28:48.835Z,100850.69
2018-01-30T15:31:14.873Z,100858.77
2018-01-30T15:33:40.773Z,100857.27
2018-01-30T15:36:06.735Z,100856.24
2018-01-30T15:38:32.669Z,100857.11
2018-01-30T15:40:58.642Z,100853.80
2018-01-30T15:43:24.585Z,100856.70
2018-01-30T15:45:50.543Z,100856.76
2018-01-30T15:48:16.531Z,100855.87
2018-01-30T15:50:42.501Z,100856.53
2018-01-30T15:53:08.450Z,100855.98
2018-01-30T15:55:34.473Z,100856.25
2018-01-30T15:58:00.445Z,100856.93
2018-01-30T16:00:26.376Z,100856.47
2018-01-30T16:02:52.359Z,100856.57
2018-01-30T16:05:18.327Z,100860.89
2018-01-30T16:07:44.317Z,100860.55
2018-01-30T16:10:10.247Z,100857.03
2018-01-30T16:12:36.185Z,100850.09
2018-01-30T16:15:02.153Z,100846.01
2018-01-30T16:17:28.171Z,100847.55
2018-01-30T16:19:54.101Z,100847.84
2018-01-30T16:22:20.135Z,100844.84
2018-01-30T16:24:47.182Z,100848.56
2018-01-30T16:27:13.129Z,100849.63
2018-01-30T16:29:39.067Z,100844.50
2018-01-30T16:32:05.017Z,100839.09
2018-01-30T16:34:31.114Z,100842.33
2018-01-30T16:36:57.191Z,100838.16
2018-01-30T16:39:23.242Z,100831.77
2018-01-30T16:41:49.198Z,100830.76
2018-01-30T16:44:15.243Z,100828.67
2018-01-30T16:46:41.187Z,100830.76
2018-01-30T16:49:07.208Z,100832.27
2018-01-30T16:51:33.263Z,100837.92
2018-01-30T16:53:59.211Z,100833.73
2018-01-30T16:56:25.160Z,100844.91
2018-01-30T16:58:51.102Z,100857.47
2018-01-30T17:01:17.062Z,100864.20
2018-01-30T17:03:43.073Z,100856.56
2018-01-30T17:06:08.976Z,100855.44
2018-01-30T17:08:34.947Z,100853.36
2018-01-30T17:11:00.898Z,100851.51
2018-01-30T17:13:26.837Z,100839.20
2018-01-30T17:15:52.774Z,100835.88
2018-01-30T17:18:18.742Z,100837.10
2018-01-30T17:20:44.693Z,100826.42
2018-01-30T17:23:10.731Z,100825.75
2018-01-30T17:25:36.670Z,100818.59
2018-01-30T17:28:02.602Z,100821.31
2018-01-30T17:30:28.528Z,100821.52
2018-01-30T17:32:54.484Z,100814.04
2018-01-30T17:35:20.416Z,100808.01
2018-01-30T17:37:46.349Z,100803.70
2018-01-30T17:40:12.298Z,100802.48
2018-01-30T17:42:38.260Z,100804.65
2018-01-30T17:45:04.238Z,100792.25
2018-01-30T17:47:30.160Z,100797.19
2018-01-30T17:49:56.092Z,100797.34
2018-01-30T17:52:22.042Z,100791.62
2018-01-30T17:54:48.006Z,100800.38
2018-01-30T17:57:13.934Z,100803.12
2018-01-30T17:59:39.874Z,100800.76
2018-01-30T18:02:05.862Z,100801.52
2018-01-30T18:04:31.794Z,100805.28
2018-01-30T18:06:57.770Z,100800.80
2018-01-30T18:09:23.707Z,100794.72
2018-01-30T18:11:49.658Z,100807.25
2018-01-30T18:14:15.638Z,100815.27
2018-01-30T18:16:41.639Z,100812.28
2018-01-30T18:19:07.595Z,100817.34
2018-01-30T18:21:33.530Z,100820.09
2018-01-30T18:23:59.500Z,100803.86
2018-01-30T18:26:25.448Z,100806.30
2018-01-30T18:28:51.577Z,100807.34
2018-01-30T18:31:17.532Z,100802.58
2018-01-30T18:33:43.496Z,100800.95
2018-01-30T18:36:10.555Z,100801.74
2018-01-30T18:38:36.529Z,100801.54
2018-01-30T18:41:02.456Z,100803.77
2018-01-30T18:43:28.414Z,100794.95
2018-01-30T18:45:54.342Z,100798.77
2018-01-30T18:48:20.349Z,100803.45
2018-01-30T18:50:46.283Z,100795.33
2018-01-30T18:53:12.234Z,100801.66
2018-01-30T18:55:38.213Z,100799.97
2018-01-30T18:58:04.151Z,100798.91
2018-01-30T19:00:30.154Z,100797.44
2018-01-30T19:02:56.143Z,100800.63
2018-01-30T19:05:22.150Z,100796.16
2018-01-30T19:07:48.122Z,100787.77
2018-01-30T19:10:14.091Z,100782.05
2018-01-30T19:12:40.070Z,100779.63
2018-01-30T19:15:06.036Z,100773.42
2018-01-30T19:17:32.008Z,100774.84
2018-01-30T19:19:58.064Z,100775.80
2018-01-30T19:22:24.017Z,100771.43
2018-01-30T19:24:49.965Z,100773.47
2018-01-30T19:27:15.949Z,100778.09
2018-01-30T19:29:41.935Z,100771.84
2018-01-30T19:32:07.901Z,100782.47
2018-01-30T19:34:33.852Z,100780.14
2018-01-30T19:36:59.863Z,100776.47
2018-01-30T19:39:25.839Z,100771.31
2018-01-30T19:41:51.824Z,100764.77
2018-01-30T19:44:17.792Z,100761.53
2018-01-30T19:46:43.791Z,100758.05
2018-01-30T19:49:09.736Z,100759.91
2018-01-30T19:51:35.707Z,100760.35
2018-01-30T19:54:01.664Z,100758.73
2018-01-30T19:56:27.676Z,100761.12
2018-01-30T19:58:53.697Z,100760.41
2018-01-30T20:01:19.669Z,100762.04
2018-01-30T20:03:45.621Z,100752.19
2018-01-30T20:06:11.624Z,100754.91
2018-01-30T20:08:37.654Z,100767.16
2018-01-30T20:11:03.642Z,100760.73
2018-01-30T20:13:29.616Z,100769.24
2018-01-30T20:15:55.669Z,100763.03
2018-01-30T20:18:21.780Z,100760.30
2018-01-30T20:20:47.744Z,100766.14
2018-01-30T20:23:13.733Z,100759.27
2018-01-30T20:25:39.707Z,100755.73
2018-01-30T20:28:05.687Z,100744.62
2018-01-30T20:30:31.710Z,100747.52
2018-01-30T20:32:57.669Z,100749.35
2018-01-30T20:35:23.674Z,100742.87
2018-01-30T20:37:49.647Z,100743.52
2018-01-30T20:40:15.583Z,100736.56
2018-01-30T20:42:41.535Z,100745.59
2018-01-30T20:45:07.521Z,100741.67
2018-01-30T20:47:33.491Z,100744.73
2018-01-30T20:49:59.440Z,100734.55
2018-01-30T20:52:25.419Z,100704.42
2018-01-30T20:54:51.424Z,100732.74
2018-01-30T20:57:17.373Z,100726.03
2018-01-30T20:59:43.317Z,100719.61
2018-01-30T21:02:09.275Z,100722.34
2018-01-30T21:04:35.285Z,100721.41
2018-01-30T21:07:01.251Z,100718.09
2018-01-30T21:09:28.289Z,100715.75
2018-01-30T21:11:54.291Z,100705.36
2018-01-30T21:14:20.231Z,100697.22
2018-01-30T21:16:46.259Z,100699.13
2018-01-30T21:19:12.202Z,100694.73
2018-01-30T21:21:38.244Z,100693.47
2018-01-30T21:24:04.242Z,100692.22
2018-01-30T21:26:30.198Z,100692.69
2018-01-30T21:28:56.193Z,100685.41
2018-01-30T21:31:22.162Z,100686.06
2018-01-30T21:33:48.139Z,100686.61
2018-01-30T21:36:14.143Z,100678.44
2018-01-30T21:38:40.173Z,100677.15
2018-01-30T21:41:06.208Z,100678.13
2018-01-30T21:43:32.146Z,100663.69
2018-01-30T21:45:58.106Z,100668.48
2018-01-30T21:48:24.038Z,100664.30
2018-01-30T21:50:49.969Z,100662.09
2018-01-30T21:53:15.914Z,100652.16
2018-01-30T21:55:41.875Z,100643.58
2018-01-30T21:58:07.812Z,100639.34
2018-01-30T22:00:33.750Z,100639.83
2018-01-30T22:02:59.694Z,100632.70
2018-01-30T22:05:25.634Z,100629.98
2018-01-30T22:07:51.568Z,100627.80
2018-01-30T22:10:17.509Z,100625.00
2018-01-30T22:12:43.485Z,100621.77
2018-01-30T22:15:09.500Z,100625.73
2018-01-30T22:17:35.542Z,100621.98
2018-01-30T22:20:01.504Z,100619.86
2018-01-30T22:22:27.470Z,100624.83
2018-01-30T22:24:53.456Z,100617.09
2018-01-30T22:27:19.412Z,100618.95
2018-01-30T22:29:45.338Z,100620.99
2018-01-30T22:32:11.280Z,100616.50
2018-01-30T22:37:09.627Z,100610.52
2018-01-30T22:39:35.561Z,100599.78
2018-01-30T22:42:01.491Z,100604.15
2018-01-30T22:44:30.055Z,100591.50
2018-01-30T22:46:53.403Z,100597.77
